Time;durP1;ratioP1;P1;durP2;ratioP2;P2;SDS_P1;SDS_P2;PMS_P1;PMS_P2;Temp;Humidity;BMP_temperature;BMP_pressure;BME280_temperature;BME280_humidity;BME280_pressure;Samples;Min_cycle;Max_cycle;Signal;HPM_P1;HPM_P2
2023/09/23 00:01:30;;;;;;;12.27;3.58;;;;;;;20.48;89.08;97971.59;4469876;32;20093;-79
2023/09/23 00:03:58;;;;;;;15.88;3.17;;;;;;;20.44;89.77;97972.25;4469879;32;20093;-79
2023/09/23 00:06:27;;;;;;;9.95;3.65;;;;;;;20.39;90.18;97979.06;4469899;32;20158;-79
2023/09/23 00:08:55;;;;;;;10.30;3.67;;;;;;;20.41;90.24;97980.69;4469960;32;20097;-79
2023/09/23 00:11:23;;;;;;;7.50;3.58;;;;;;;20.39;90.70;97989.72;4469955;32;20089;-79
2023/09/23 00:13:50;;;;;;;13.02;3.45;;;;;;;20.36;90.57;97974.19;4469876;32;20716;-79
2023/09/23 00:16:17;;;;;;;9.55;3.50;;;;;;;20.37;90.56;97970.47;4480011;32;20100;-79
2023/09/23 00:18:44;;;;;;;8.48;3.53;;;;;;;20.35;90.21;97963.78;4485469;32;20093;-79
2023/09/23 00:21:12;;;;;;;8.00;3.75;;;;;;;20.35;90.48;97956.59;4485302;31;20092;-79
2023/09/23 00:23:40;;;;;;;12.80;3.67;;;;;;;20.42;90.39;97942.41;4485730;31;20123;-79
2023/09/23 00:26:07;;;;;;;12.00;3.08;;;;;;;20.43;90.19;97962.69;4485362;32;20153;-79
2023/09/23 00:28:35;;;;;;;10.77;3.42;;;;;;;20.42;89.97;97966.34;4485225;31;20490;-79
2023/09/23 00:31:14;;;;;;;11.10;3.50;;;;;;;20.39;90.23;97957.78;4485227;31;20104;-79
2023/09/23 00:33:42;;;;;;;9.85;3.60;;;;;;;20.38;90.86;97966.81;4485150;31;20525;-79
2023/09/23 00:36:10;;;;;;;12.57;3.45;;;;;;;20.33;91.01;97964.00;4485388;31;20083;-79
2023/09/23 00:38:38;;;;;;;11.75;3.30;;;;;;;20.38;91.82;97971.31;4485306;31;20578;-79
2023/09/23 00:41:06;;;;;;;13.43;3.75;;;;;;;20.39;91.50;97970.25;4484291;31;20120;-79
2023/09/23 00:43:34;;;;;;;14.63;4.00;;;;;;;20.42;90.78;97977.00;4485172;31;20085;-79
2023/09/23 00:46:06;;;;;;;15.93;3.60;;;;;;;20.44;91.06;97964.28;4485159;31;20108;-79
2023/09/23 00:48:38;;;;;;;17.02;3.65;;;;;;;20.45;90.90;97971.25;4485205;31;20088;-79
2023/09/23 00:51:07;;;;;;;11.15;3.78;;;;;;;20.45;91.02;97969.38;4485126;31;20084;-79
2023/09/23 00:53:38;;;;;;;9.32;3.33;;;;;;;20.48;91.43;97978.78;4476817;31;20571;-79
2023/09/23 00:56:08;;;;;;;9.80;3.58;;;;;;;20.48;91.38;97968.13;4469469;32;20089;-79
2023/09/23 00:58:37;;;;;;;11.27;3.40;;;;;;;20.49;91.22;97969.78;4469295;32;20084;-79
2023/09/23 01:01:07;;;;;;;12.07;3.60;;;;;;;20.47;91.02;97969.16;4469470;32;20118;-79
2023/09/23 01:03:38;;;;;;;11.45;3.65;;;;;;;20.44;90.92;97970.44;4469312;32;20085;-79
2023/09/23 01:06:15;;;;;;;8.93;3.87;;;;;;;20.45;91.16;97976.56;4469507;32;20545;-79
2023/09/23 01:08:45;;;;;;;11.75;3.92;;;;;;;20.52;91.23;97982.63;4469256;32;20081;-79
2023/09/23 01:11:13;;;;;;;11.27;3.55;;;;;;;20.48;91.73;97989.41;4469366;32;20123;-79
2023/09/23 01:13:43;;;;;;;12.68;4.20;;;;;;;20.47;92.10;97995.75;4469239;32;20119;-79
2023/09/23 01:16:14;;;;;;;23.48;4.43;;;;;;;20.47;93.13;98001.09;4479185;32;20521;-79
2023/09/23 01:18:48;;;;;;;7.32;3.20;;;;;;;20.49;93.23;98004.34;4484786;32;20513;-79
2023/09/23 01:21:16;;;;;;;10.70;3.87;;;;;;;20.52;92.58;98006.59;4484942;31;20450;-79
2023/09/23 01:23:44;;;;;;;13.93;3.67;;;;;;;20.55;92.15;98003.47;4484897;31;20093;-79
2023/09/23 01:26:11;;;;;;;10.32;3.83;;;;;;;20.53;91.77;98001.03;4484955;31;20083;-79
2023/09/23 01:28:39;;;;;;;8.93;3.50;;;;;;;20.59;91.24;98004.69;4484710;31;20169;-79
2023/09/23 01:31:07;;;;;;;16.15;4.40;;;;;;;20.62;91.09;98014.88;4484748;32;20100;-79
2023/09/23 01:33:35;;;;;;;14.80;4.28;;;;;;;20.62;90.98;98014.88;4484627;31;20172;-79
2023/09/23 01:36:03;;;;;;;10.82;3.35;;;;;;;20.66;91.20;98015.25;4484716;31;20139;-78
2023/09/23 01:38:31;;;;;;;14.70;4.80;;;;;;;20.83;90.94;97999.50;4484762;31;20096;-79
2023/09/23 01:41:03;;;;;;;8.90;3.95;;;;;;;20.78;91.34;98002.84;4484672;31;20085;-78
2023/09/23 01:43:31;;;;;;;14.07;3.87;;;;;;;20.79;92.24;98003.66;4484555;31;20115;-79
2023/09/23 01:46:04;;;;;;;11.20;4.25;;;;;;;20.76;92.59;98015.56;4484430;31;20092;-79
2023/09/23 01:48:33;;;;;;;;;;;;;;;20.77;92.54;98027.81;4484935;31;20430;-79
2023/09/23 01:51:00;;;;;;;12.80;4.18;;;;;;;20.80;92.58;98026.59;4484887;31;19980;-78
2023/09/23 01:53:28;;;;;;;10.90;3.90;;;;;;;20.82;92.71;98025.34;4479014;31;20131;-79
2023/09/23 01:55:56;;;;;;;10.88;4.87;;;;;;;20.79;92.57;98030.28;4470584;32;20084;-79
2023/09/23 01:58:23;;;;;;;13.43;4.35;;;;;;;20.82;92.36;98035.19;4470505;32;20117;-79
2023/09/23 02:00:54;;;;;;;12.52;4.50;;;;;;;20.75;92.63;98027.25;4470827;32;20096;-79
2023/09/23 02:03:23;;;;;;;13.25;4.10;;;;;;;20.79;92.97;98043.56;4470497;32;20093;-79
2023/09/23 02:05:51;;;;;;;12.82;4.30;;;;;;;20.70;93.83;98040.41;4470903;32;20119;-79
2023/09/23 02:08:18;;;;;;;11.10;4.82;;;;;;;20.68;93.79;98040.63;4470388;32;20108;-79
2023/09/23 02:10:46;;;;;;;15.65;4.18;;;;;;;20.65;94.15;98043.75;4470826;32;20115;-79
2023/09/23 02:13:14;;;;;;;16.05;5.75;;;;;;;20.67;93.38;98046.97;4470550;32;20397;-79
2023/09/23 02:15:42;;;;;;;8.45;3.75;;;;;;;20.71;93.31;98047.34;4476927;32;20096;-79
2023/09/23 02:18:09;;;;;;;8.85;4.00;;;;;;;20.70;93.71;98046.53;4486258;31;20084;-79
2023/09/23 02:20:40;;;;;;;10.23;3.97;;;;;;;20.73;93.15;98043.44;4486013;31;20096;-79
2023/09/23 02:23:09;;;;;;;18.60;5.00;;;;;;;20.76;93.29;98041.34;4485962;31;20119;-79
2023/09/23 02:25:36;;;;;;;11.55;3.70;;;;;;;20.74;93.32;98045.06;4486206;31;20115;-79
2023/09/23 02:28:04;;;;;;;13.60;3.97;;;;;;;20.76;93.54;98057.34;4485804;31;20193;-79
2023/09/23 02:30:32;;;;;;;13.13;4.45;;;;;;;20.73;94.15;98053.28;4486098;32;20093;-79
2023/09/23 02:32:59;;;;;;;22.73;5.18;;;;;;;20.80;94.86;98061.19;4485907;32;20172;-79
2023/09/23 02:35:27;;;;;;;15.60;4.78;;;;;;;20.87;95.82;98064.59;4485931;32;20544;-79
2023/09/23 02:37:54;;;;;;;16.77;4.40;;;;;;;20.90;96.30;98072.16;4486492;31;20140;-79
2023/09/23 02:40:22;;;;;;;13.70;4.78;;;;;;;20.89;96.20;98073.16;4485959;31;20156;-79
2023/09/23 02:42:53;;;;;;;16.77;4.90;;;;;;;20.87;97.37;98075.25;4486342;31;20585;-79
2023/09/23 02:45:22;;;;;;;11.18;3.97;;;;;;;20.84;96.67;98081.03;4485981;31;20149;-79
2023/09/23 02:47:52;;;;;;;11.93;4.28;;;;;;;20.80;97.32;98085.94;4486101;31;20845;-79
2023/09/23 02:50:20;;;;;;;11.55;4.47;;;;;;;20.76;96.83;98091.94;4485947;31;20089;-79
2023/09/23 02:52:49;;;;;;;15.45;4.87;;;;;;;20.76;97.10;98086.59;4482824;31;20109;-79
2023/09/23 02:55:19;;;;;;;14.43;4.15;;;;;;;20.69;97.50;98082.16;4470266;32;20469;-79
2023/09/23 02:57:51;;;;;;;20.52;4.62;;;;;;;20.76;97.93;98090.09;4470152;32;20166;-79
2023/09/23 03:00:20;;;;;;;10.38;4.75;;;;;;;20.83;97.97;98092.69;4470144;32;20138;-79
2023/09/23 03:02:58;;;;;;;17.27;4.90;;;;;;;20.88;97.64;98080.34;4469736;32;20101;-79
2023/09/23 03:05:29;;;;;;;26.92;4.85;;;;;;;20.92;98.09;98078.88;4470317;32;20077;-79
2023/09/23 03:08:01;;;;;;;12.60;4.15;;;;;;;20.92;98.80;98078.06;4470111;32;20457;-79
2023/09/23 03:10:39;;;;;;;16.73;4.60;;;;;;;20.89;100.00;98089.16;4470454;32;20085;-79
2023/09/23 03:13:11;;;;;;;15.23;4.50;;;;;;;20.87;100.00;98085.91;4470198;32;20139;-79
2023/09/23 03:15:44;;;;;;;14.63;4.57;;;;;;;20.73;100.00;98086.03;4476514;32;20096;-79
2023/09/23 03:18:15;;;;;;;18.02;5.78;;;;;;;20.69;100.00;98084.84;4485783;31;20106;-79
2023/09/23 03:20:44;;;;;;;11.52;4.18;;;;;;;20.65;100.00;98073.00;4486068;31;20088;-79
2023/09/23 03:23:12;;;;;;;17.05;4.45;;;;;;;20.63;100.00;98072.37;4485847;32;20143;-79
2023/09/23 03:25:47;;;;;;;8.98;4.75;;;;;;;20.65;100.00;98065.03;4485656;32;20420;-79
2023/09/23 03:28:18;;;;;;;17.70;6.60;;;;;;;20.65;100.00;98065.03;4486009;31;20076;-79
2023/09/23 03:30:48;;;;;;;12.57;4.70;;;;;;;20.62;100.00;98065.44;4485820;32;20105;-79
2023/09/23 03:33:21;;;;;;;18.92;6.05;;;;;;;20.53;100.00;98061.41;4485978;31;20101;-79
2023/09/23 03:35:49;;;;;;;12.43;4.20;;;;;;;20.54;100.00;98061.19;4485541;31;20151;-79
2023/09/23 03:38:16;;;;;;;12.98;5.85;;;;;;;20.48;100.00;98061.25;4485837;31;20123;-79
2023/09/23 03:40:59;;;;;;;16.30;4.95;;;;;;;20.48;100.00;98055.94;4485780;31;20096;-79
2023/09/23 03:43:26;;;;;;;14.45;4.45;;;;;;;20.48;100.00;98069.25;4485712;32;20085;-79
2023/09/23 03:45:54;;;;;;;11.98;6.43;;;;;;;20.38;100.00;98070.56;4485556;31;20112;-79
2023/09/23 03:48:21;;;;;;;14.35;5.30;;;;;;;20.41;100.00;98076.47;4485504;31;20714;-79
2023/09/23 03:50:52;;;;;;;12.37;5.57;;;;;;;20.38;100.00;98073.22;4485504;31;20091;-79
2023/09/23 03:53:21;;;;;;;14.25;5.32;;;;;;;20.48;100.00;98071.91;4479118;31;20092;-79
2023/09/23 03:55:52;;;;;;;19.35;6.30;;;;;;;20.39;100.00;98082.84;4469755;32;20104;-79
2023/09/23 03:58:20;;;;;;;15.27;5.32;;;;;;;20.41;100.00;98089.75;4469970;32;20115;-79
2023/09/23 04:00:47;;;;;;;23.25;5.43;;;;;;;20.36;100.00;98098.41;4469674;32;20186;-79
2023/09/23 04:03:17;;;;;;;17.73;5.05;;;;;;;20.33;100.00;98094.34;4470184;32;20150;-79
2023/09/23 04:05:58;;;;;;;14.57;5.20;;;;;;;20.26;100.00;98085.59;4469655;32;20093;-79
2023/09/23 04:08:26;;;;;;;18.45;5.53;;;;;;;20.42;100.00;98084.22;4470169;32;20097;-79
2023/09/23 04:10:53;;;;;;;17.08;5.60;;;;;;;20.55;100.00;98088.63;4469534;32;20169;-79
2023/09/23 04:13:21;;;;;;;13.93;5.75;;;;;;;20.45;100.00;98097.09;4469870;32;20150;-79
2023/09/23 04:15:48;;;;;;;18.37;6.57;;;;;;;20.30;100.00;98105.41;4475602;32;20131;-79
2023/09/23 04:18:18;;;;;;;15.43;5.28;;;;;;;20.28;100.00;98104.81;4485463;31;20434;-79
2023/09/23 04:20:48;;;;;;;16.27;5.72;;;;;;;20.18;100.00;98099.12;4485181;31;20118;-79
2023/09/23 04:23:15;;;;;;;16.92;5.05;;;;;;;20.09;100.00;98101.28;4485428;31;20142;-79
2023/09/23 04:25:42;;;;;;;16.55;6.15;;;;;;;20.16;100.00;98095.87;4485242;31;20109;-79
2023/09/23 04:28:09;;;;;;;11.57;5.62;;;;;;;20.15;100.00;98102.22;4485220;31;20105;-79
2023/09/23 04:30:37;;;;;;;25.00;6.85;;;;;;;20.13;100.00;98096.31;4485208;31;20088;-79
2023/09/23 04:33:04;;;;;;;20.60;5.62;;;;;;;19.90;100.00;98099.56;4485473;31;20089;-79
2023/09/23 04:35:34;;;;;;;17.52;5.60;;;;;;;19.94;100.00;98109.53;4485020;32;20188;-79
2023/09/23 04:38:02;;;;;;;14.80;5.45;;;;;;;19.95;100.00;98113.81;4485291;31;20131;-79
2023/09/23 04:40:30;;;;;;;13.57;6.20;;;;;;;19.94;100.00;98106.88;4485023;31;20084;-79
2023/09/23 04:42:57;;;;;;;13.80;5.97;;;;;;;19.85;100.00;98106.31;4485209;31;20116;-79
2023/09/23 04:45:25;;;;;;;26.98;6.70;;;;;;;19.76;100.00;98107.56;4485238;32;20104;-79
2023/09/23 04:47:52;;;;;;;15.63;6.72;;;;;;;19.69;100.00;98088.97;4484953;31;20367;-79
2023/09/23 04:50:23;;;;;;;14.15;5.90;;;;;;;19.66;100.00;98096.56;4485092;31;20118;-79
2023/09/23 04:52:50;;;;;;;19.00;5.95;;;;;;;19.59;100.00;98093.13;4482010;31;20513;-79
2023/09/23 04:55:19;;;;;;;19.62;5.28;;;;;;;19.50;100.00;98108.50;4469457;32;20545;-79
2023/09/23 04:57:46;;;;;;;18.20;6.47;;;;;;;19.54;100.00;98108.91;4469431;32;20167;-79
2023/09/23 05:00:18;;;;;;;9.68;4.62;;;;;;;19.58;100.00;98108.25;4469221;32;20092;-78
2023/09/23 05:02:48;;;;;;;11.15;5.30;;;;;;;19.62;100.00;98112.13;4469521;32;20141;-79
2023/09/23 05:05:20;;;;;;;17.73;6.00;;;;;;;19.59;100.00;98109.91;4469300;32;20387;-79
2023/09/23 05:07:48;;;;;;;13.68;5.12;;;;;;;19.69;100.00;98128.84;4469371;32;20128;-79
2023/09/23 05:10:17;;;;;;;17.05;5.15;;;;;;;19.74;100.00;98140.69;4469268;32;20143;-79
2023/09/23 05:12:46;;;;;;;14.73;4.85;;;;;;;19.77;100.00;98140.25;4469401;32;20084;-79
2023/09/23 05:15:15;;;;;;;18.23;5.22;;;;;;;19.86;100.00;98139.00;4472883;32;20104;-79
2023/09/23 05:17:45;;;;;;;11.55;5.90;;;;;;;19.83;100.00;98147.41;4484736;31;20097;-79
2023/09/23 05:20:18;;;;;;;16.35;4.85;;;;;;;19.85;100.00;98148.03;4484961;31;20126;-79
2023/09/23 05:22:48;;;;;;;15.95;4.80;;;;;;;19.88;100.00;98149.44;4484833;31;20226;-79
2023/09/23 05:25:15;;;;;;;13.62;4.95;;;;;;;19.80;100.00;98163.78;4484705;31;20160;-79
2023/09/23 05:27:43;;;;;;;13.18;4.28;;;;;;;19.90;100.00;98164.16;4484526;31;20159;-79
2023/09/23 05:30:11;;;;;;;11.55;4.80;;;;;;;19.88;100.00;98174.19;4485120;31;20393;-79
2023/09/23 05:32:50;;;;;;;18.52;5.37;;;;;;;19.93;100.00;98182.34;4484806;31;20118;-79
2023/09/23 05:35:18;;;;;;;23.15;6.47;;;;;;;19.99;100.00;98202.75;4470594;31;453582;-79
2023/09/23 05:37:47;;;;;;;15.68;5.47;;;;;;;20.02;100.00;98207.66;4484747;31;20147;-79
2023/09/23 05:40:24;;;;;;;14.02;4.80;;;;;;;20.01;100.00;98216.66;4484263;31;20128;-79
2023/09/23 05:42:51;;;;;;;;;;;;;;;20.11;100.00;98218.06;4484853;31;20115;-79
2023/09/23 05:45:23;;;;;;;18.10;4.70;;;;;;;20.09;100.00;98220.09;4483774;31;20002;-78
2023/09/23 05:47:52;;;;;;;16.67;5.43;;;;;;;20.09;100.00;98234.22;4483381;31;20407;-79
2023/09/23 05:50:20;;;;;;;13.00;5.07;;;;;;;20.10;100.00;98233.19;4483826;31;20465;-79
2023/09/23 05:52:49;;;;;;;13.52;4.57;;;;;;;20.09;100.00;98238.72;4480670;31;20483;-78
2023/09/23 05:55:17;;;;;;;11.73;4.82;;;;;;;20.02;100.00;98249.38;4468096;32;20100;-79
2023/09/23 05:57:44;;;;;;;11.50;4.75;;;;;;;20.06;100.00;98247.13;4467893;32;20081;-78
2023/09/23 06:00:15;;;;;;;15.77;6.37;;;;;;;19.88;100.00;98248.63;4467965;32;20093;-78
2023/09/23 06:02:44;;;;;;;17.05;5.72;;;;;;;19.91;100.00;98258.84;4468796;32;20491;-78
2023/09/23 06:05:14;;;;;;;17.08;6.18;;;;;;;19.85;100.00;98254.38;4468720;32;20076;-78
2023/09/23 06:07:42;;;;;;;14.40;6.30;;;;;;;19.72;100.00;98254.38;4468427;32;20089;-79
2023/09/23 06:10:10;;;;;;;16.87;6.35;;;;;;;19.60;100.00;98249.69;4468415;32;20545;-78
2023/09/23 06:12:38;;;;;;;14.87;7.18;;;;;;;19.59;100.00;98244.56;4467120;32;20088;-79
2023/09/23 06:15:08;;;;;;;15.95;6.65;;;;;;;19.61;100.00;98238.03;4471186;32;20280;-79
2023/09/23 06:17:36;;;;;;;17.73;6.90;;;;;;;19.56;100.00;98235.19;4483857;32;20135;-79
2023/09/23 06:20:05;;;;;;;14.93;7.03;;;;;;;19.52;100.00;98226.00;4484196;31;20397;-79
2023/09/23 06:22:34;;;;;;;18.95;7.10;;;;;;;19.55;100.00;98240.72;4483959;32;20084;-79
2023/09/23 06:25:03;;;;;;;15.10;7.32;;;;;;;19.49;100.00;98256.44;4484095;31;20158;-79
2023/09/23 06:27:30;;;;;;;17.58;6.82;;;;;;;19.48;100.00;98254.81;4483967;31;20549;-79
2023/09/23 06:29:58;;;;;;;16.37;5.87;;;;;;;19.36;100.00;98277.72;4483912;31;20150;-78
2023/09/23 06:32:25;;;;;;;10.07;6.32;;;;;;;19.23;100.00;98280.38;4483979;31;20115;-78
2023/09/23 06:34:53;;;;;;;10.68;4.80;;;;;;;19.23;100.00;98307.78;4483696;31;20093;-77
2023/09/23 06:37:21;;;;;;;14.65;5.10;;;;;;;19.05;100.00;98342.88;4483823;32;20463;-78
2023/09/23 06:39:48;;;;;;;8.65;4.40;;;;;;;19.03;100.00;98358.22;4486042;31;20115;-78
2023/09/23 06:42:15;;;;;;;10.05;4.10;;;;;;;18.71;100.00;98355.25;4485768;32;20119;-78
2023/09/23 06:44:43;;;;;;;7.43;4.55;;;;;;;18.51;100.00;98376.38;4486094;31;20118;-78
2023/09/23 06:47:12;;;;;;;7.62;4.05;;;;;;;18.40;100.00;98369.00;4486215;31;20110;-78
2023/09/23 06:49:40;;;;;;;8.20;3.87;;;;;;;18.24;100.00;98381.59;4486017;31;20118;-78
2023/09/23 06:52:07;;;;;;;7.95;3.97;;;;;;;18.20;100.00;98395.44;4485850;31;20104;-77
2023/09/23 06:54:35;;;;;;;10.50;4.30;;;;;;;18.26;100.00;98384.03;4471319;31;20501;-78
2023/09/23 06:57:03;;;;;;;7.80;4.37;;;;;;;18.23;100.00;98390.53;4470366;32;20526;-78
2023/09/23 06:59:30;;;;;;;7.60;4.35;;;;;;;18.25;100.00;98401.75;4470398;32;20081;-78
2023/09/23 07:01:58;;;;;;;7.57;4.40;;;;;;;18.22;100.00;98414.59;4470042;32;20245;-78
2023/09/23 07:04:25;;;;;;;10.95;4.35;;;;;;;18.13;100.00;98411.28;4470319;32;20101;-78
2023/09/23 07:06:53;;;;;;;6.87;4.68;;;;;;;18.07;100.00;98412.06;4470145;32;20127;-78
2023/09/23 07:09:21;;;;;;;7.90;4.45;;;;;;;18.02;100.00;98403.88;4470247;32;20146;-78
2023/09/23 07:11:49;;;;;;;8.35;4.18;;;;;;;17.99;100.00;98409.56;4469984;32;20138;-78
2023/09/23 07:14:16;;;;;;;5.87;4.60;;;;;;;18.03;100.00;98422.25;4470402;32;20093;-79
2023/09/23 07:16:44;;;;;;;9.18;4.30;;;;;;;18.08;100.00;98419.81;4483310;32;20499;-79
2023/09/23 07:19:11;;;;;;;13.70;4.47;;;;;;;18.09;100.00;98425.94;4485669;31;20565;-79
2023/09/23 07:21:38;;;;;;;6.78;4.57;;;;;;;18.20;100.00;98428.06;4485753;31;20104;-78
2023/09/23 07:24:06;;;;;;;10.30;4.43;;;;;;;18.15;100.00;98425.16;4485624;31;20097;-79
2023/09/23 07:26:38;;;;;;;6.20;4.72;;;;;;;18.20;100.00;98430.72;4485843;31;20092;-79
2023/09/23 07:29:06;;;;;;;7.95;4.70;;;;;;;18.27;100.00;98420.12;4485511;31;20093;-79
2023/09/23 07:31:33;;;;;;;6.00;4.43;;;;;;;18.27;100.00;98442.19;4485594;31;20386;-79
2023/09/23 07:34:02;;;;;;;6.35;4.03;;;;;;;18.30;100.00;98450.75;4485555;31;20451;-78
2023/09/23 07:36:29;;;;;;;7.00;4.57;;;;;;;18.35;100.00;98456.28;4485734;31;20115;-78
2023/09/23 07:38:58;;;;;;;6.50;4.70;;;;;;;18.24;100.00;98447.88;4485671;31;20101;-78
2023/09/23 07:41:25;;;;;;;8.43;4.90;;;;;;;18.27;100.00;98444.84;4485535;32;20144;-79
2023/09/23 07:43:52;;;;;;;7.10;4.43;;;;;;;18.41;100.00;98450.19;4485384;31;20088;-78
2023/09/23 07:46:22;;;;;;;8.50;4.82;;;;;;;18.47;100.00;98445.94;4485937;32;20556;-79
2023/09/23 07:48:50;;;;;;;6.05;4.82;;;;;;;18.45;100.00;98440.84;4485355;31;20115;-78
2023/09/23 07:51:18;;;;;;;7.18;4.40;;;;;;;18.42;100.00;98433.28;4485551;31;20104;-78
2023/09/23 07:53:45;;;;;;;6.18;4.43;;;;;;;18.52;100.00;98425.78;4476240;31;20161;-79
2023/09/23 07:56:13;;;;;;;12.55;4.50;;;;;;;18.49;100.00;98410.25;4469798;32;20105;-79
2023/09/23 07:58:40;;;;;;;8.10;4.80;;;;;;;18.50;100.00;98389.84;4469660;32;20140;-79
2023/09/23 08:01:08;;;;;;;7.22;4.80;;;;;;;18.21;100.00;98365.22;4469920;32;20165;-79
2023/09/23 08:03:35;;;;;;;10.00;4.90;;;;;;;18.49;100.00;98356.41;4469807;32;20115;-79
2023/09/23 08:06:03;;;;;;;10.82;5.15;;;;;;;18.58;100.00;98347.25;4469775;32;20513;-79
2023/09/23 08:08:31;;;;;;;8.90;5.18;;;;;;;18.78;100.00;98334.84;4469606;32;20488;-80
2023/09/23 08:10:58;;;;;;;9.05;5.70;;;;;;;18.80;100.00;98289.53;4469724;32;20101;-80
2023/09/23 08:13:26;;;;;;;12.50;5.62;;;;;;;18.78;100.00;98283.59;4470013;32;20096;-81
2023/09/23 08:15:57;;;;;;;11.25;6.07;;;;;;;18.98;100.00;98278.34;4477511;32;20088;-81
2023/09/23 08:18:25;;;;;;;9.90;5.95;;;;;;;19.33;100.00;98286.94;4485467;31;20080;-81
2023/09/23 08:20:56;;;;;;;7.60;5.70;;;;;;;19.50;100.00;98299.78;4485529;31;20165;-81
2023/09/23 08:23:24;;;;;;;9.52;5.15;;;;;;;19.49;100.00;98292.84;4485364;31;20456;-82
2023/09/23 08:25:54;;;;;;;10.30;6.37;;;;;;;19.61;100.00;98283.22;4485351;31;20084;-81
2023/09/23 08:28:22;;;;;;;13.70;5.90;;;;;;;19.43;100.00;98283.84;4485457;31;20137;-82
2023/09/23 08:30:53;;;;;;;13.38;6.12;;;;;;;19.35;100.00;98283.22;4485537;31;20557;-82
2023/09/23 08:33:21;;;;;;;10.05;6.10;;;;;;;19.34;100.00;98287.75;4485216;31;20220;-82
2023/09/23 08:35:48;;;;;;;12.15;6.20;;;;;;;19.11;100.00;98290.81;4485157;31;20124;-82
2023/09/23 08:38:16;;;;;;;9.20;6.55;;;;;;;19.23;100.00;98291.84;4485265;31;20088;-82
2023/09/23 08:40:46;;;;;;;10.82;6.18;;;;;;;19.39;100.00;98289.78;4485224;31;20100;-82
2023/09/23 08:43:14;;;;;;;10.85;6.60;;;;;;;19.53;100.00;98294.06;4485371;31;20157;-82
2023/09/23 08:45:43;;;;;;;9.95;6.37;;;;;;;19.57;100.00;98297.94;4483923;32;20100;-82
2023/09/23 08:48:12;;;;;;;12.85;6.47;;;;;;;19.53;100.00;98293.22;4483874;32;20460;-83
2023/09/23 08:50:43;;;;;;;9.95;6.00;;;;;;;19.79;100.00;98292.41;4485351;31;20096;-83
2023/09/23 08:53:11;;;;;;;11.48;6.12;;;;;;;20.06;100.00;98308.28;4479782;31;20371;-83
2023/09/23 08:55:38;;;;;;;17.73;8.68;;;;;;;20.39;100.00;98308.13;4468407;32;20115;-83
2023/09/23 08:58:05;;;;;;;16.23;10.43;;;;;;;20.82;100.00;98334.16;4469515;32;20866;-83
2023/09/23 09:00:33;;;;;;;14.18;10.45;;;;;;;20.90;100.00;98351.72;4468410;32;20213;-83
2023/09/23 09:03:01;;;;;;;16.98;10.98;;;;;;;20.78;100.00;98358.75;4469353;32;20184;-83
2023/09/23 09:05:40;;;;;;;20.95;11.98;;;;;;;20.72;100.00;98379.06;4469588;32;20569;-83
2023/09/23 09:08:08;;;;;;;17.02;11.43;;;;;;;20.68;100.00;98383.16;4469387;32;20080;-83
2023/09/23 09:10:35;;;;;;;14.15;9.95;;;;;;;20.72;100.00;98389.69;4469215;32;20740;-83
2023/09/23 09:13:06;;;;;;;17.15;9.27;;;;;;;20.92;100.00;98386.94;4469394;32;20115;-83
2023/09/23 09:15:35;;;;;;;20.92;10.82;;;;;;;20.92;100.00;98401.06;4474840;32;20150;-83
2023/09/23 09:18:03;;;;;;;14.60;8.48;;;;;;;20.67;100.00;98402.84;4484939;31;20701;-83
2023/09/23 09:20:31;;;;;;;14.10;8.38;;;;;;;20.50;100.00;98405.09;4484742;31;20168;-83
2023/09/23 09:23:01;;;;;;;11.18;7.05;;;;;;;20.13;100.00;98408.28;4484936;31;20100;-83
2023/09/23 09:25:30;;;;;;;15.55;8.00;;;;;;;19.82;100.00;98409.75;4484949;31;20461;-83
2023/09/23 09:27:58;;;;;;;9.10;6.32;;;;;;;19.69;100.00;98409.72;4484918;31;20450;-83
2023/09/23 09:30:26;;;;;;;10.93;6.45;;;;;;;19.72;100.00;98413.84;4484850;31;20092;-83
2023/09/23 09:32:59;;;;;;;12.23;6.55;;;;;;;19.88;100.00;98408.13;4484790;31;20149;-83
2023/09/23 09:35:27;;;;;;;11.82;6.65;;;;;;;20.47;100.00;98405.53;4484679;31;20100;-83
2023/09/23 09:38:00;;;;;;;11.40;6.93;;;;;;;20.79;100.00;98406.47;4484760;32;20093;-83
2023/09/23 09:40:30;;;;;;;13.45;6.47;;;;;;;21.57;100.00;98404.56;4484807;31;20112;-83
2023/09/23 09:42:59;;;;;;;11.90;5.80;;;;;;;22.25;100.00;98405.56;4484580;31;20544;-83
2023/09/23 09:45:27;;;;;;;9.15;4.62;;;;;;;22.79;100.00;98406.59;4484593;31;20141;-84
2023/09/23 09:48:00;;;;;;;6.55;4.57;;;;;;;22.93;100.00;98406.44;4483418;32;20080;-84
2023/09/23 09:50:30;;;;;;;9.10;5.10;;;;;;;23.10;100.00;98404.78;4483536;32;20084;-84
2023/09/23 09:52:58;;;;;;;9.38;5.18;;;;;;;23.10;100.00;98402.09;4480519;31;20108;-84
2023/09/23 09:55:26;;;;;;;7.53;4.53;;;;;;;23.02;100.00;98400.53;4468805;32;20109;-83
2023/09/23 09:57:54;;;;;;;12.77;6.15;;;;;;;22.83;100.00;98399.78;4468884;32;20092;-83
2023/09/23 10:00:33;;;;;;;8.70;5.00;;;;;;;22.93;100.00;98403.78;4468625;32;20104;-84
2023/09/23 10:03:06;;;;;;;8.75;5.93;;;;;;;22.60;100.00;98402.34;4468827;32;20584;-83
2023/09/23 10:05:46;;;;;;;12.57;4.87;;;;;;;22.47;100.00;98409.47;4468751;32;20085;-83
2023/09/23 10:08:19;;;;;;;;;;;;;;;22.29;100.00;98406.78;4469105;32;20392;-83
2023/09/23 10:10:49;;;;;;;7.32;4.40;;;;;;;22.20;100.00;98400.09;4468526;32;20314;-83
2023/09/23 10:13:22;;;;;;;7.18;4.22;;;;;;;22.45;100.00;98392.03;4470048;32;20101;-83
2023/09/23 10:15:50;;;;;;;8.07;5.72;;;;;;;22.79;100.00;98406.59;4476688;32;20088;-83
2023/09/23 10:18:19;;;;;;;13.65;5.62;;;;;;;22.82;100.00;98408.81;4486262;31;20093;-84
2023/09/23 10:20:50;;;;;;;9.45;5.30;;;;;;;22.73;100.00;98407.50;4486176;31;20104;-83
2023/09/23 10:23:20;;;;;;;8.38;5.57;;;;;;;22.38;100.00;98418.81;4486297;31;20583;-84
2023/09/23 10:25:48;;;;;;;5.90;5.15;;;;;;;22.06;100.00;98424.25;4486257;31;20115;-83
2023/09/23 10:28:23;;;;;;;8.05;4.65;;;;;;;21.99;100.00;98418.16;4486400;31;20161;-83
2023/09/23 10:31:03;;;;;;;6.22;5.55;;;;;;;22.30;100.00;98414.56;4486274;31;20091;-83
2023/09/23 10:33:32;;;;;;;7.93;6.10;;;;;;;22.28;100.00;98413.94;4486137;31;20461;-83
2023/09/23 10:36:03;;;;;;;7.37;5.82;;;;;;;22.22;100.00;98422.84;4486001;31;20116;-83
2023/09/23 10:38:38;;;;;;;9.73;6.20;;;;;;;22.00;100.00;98419.78;4486146;31;20111;-83
2023/09/23 10:41:06;;;;;;;8.77;5.80;;;;;;;21.36;100.00;98419.88;4486142;31;20110;-83
2023/09/23 10:43:34;;;;;;;11.38;5.32;;;;;;;21.47;100.00;98414.84;4486083;31;20577;-83
2023/09/23 10:46:02;;;;;;;7.22;5.70;;;;;;;21.15;100.00;98406.88;4485981;31;20155;-83
2023/09/23 10:48:30;;;;;;;7.10;5.82;;;;;;;21.19;100.00;98402.75;4486057;31;20116;-83
2023/09/23 10:51:00;;;;;;;7.35;5.95;;;;;;;20.97;100.00;98412.91;4485936;31;20085;-83
2023/09/23 10:53:28;;;;;;;8.38;6.32;;;;;;;20.78;100.00;98433.31;4478848;31;20169;-83
2023/09/23 10:55:57;;;;;;;11.63;6.90;;;;;;;20.65;100.00;98435.00;4470068;32;20105;-83
2023/09/23 10:58:25;;;;;;;11.27;6.28;;;;;;;20.67;100.00;98440.91;4470395;32;20461;-83
2023/09/23 11:00:55;;;;;;;9.02;6.62;;;;;;;20.60;100.00;98436.59;4470216;32;20108;-83
2023/09/23 11:03:23;;;;;;;6.55;5.87;;;;;;;20.68;100.00;98445.22;4470459;32;20156;-83
2023/09/23 11:05:51;;;;;;;7.00;6.22;;;;;;;20.59;100.00;98454.44;4470171;32;20153;-83
2023/09/23 11:08:18;;;;;;;6.57;5.87;;;;;;;20.61;100.00;98465.69;4469047;32;20084;-83
2023/09/23 11:10:47;;;;;;;7.43;6.15;;;;;;;20.49;100.00;98462.03;4470164;32;20121;-83
2023/09/23 11:13:16;;;;;;;6.95;5.55;;;;;;;20.65;100.00;98463.41;4470511;32;20541;-83
2023/09/23 11:15:45;;;;;;;7.75;5.50;;;;;;;20.85;100.00;98469.50;4476746;32;20566;-83
2023/09/23 11:18:16;;;;;;;6.80;5.45;;;;;;;21.23;100.00;98479.38;4485781;31;20124;-83
2023/09/23 11:20:46;;;;;;;6.87;5.62;;;;;;;21.52;100.00;98479.03;4486146;31;20093;-83
2023/09/23 11:23:15;;;;;;;7.20;5.50;;;;;;;21.35;100.00;98482.19;4485654;31;20123;-83
2023/09/23 11:25:49;;;;;;;13.60;6.15;;;;;;;21.36;100.00;98469.66;4485619;31;20145;-83
2023/09/23 11:28:17;;;;;;;8.00;6.62;;;;;;;21.42;100.00;98461.66;4486071;31;20084;-83
2023/09/23 11:30:46;;;;;;;8.05;6.35;;;;;;;21.17;100.00;98464.25;4485679;31;20094;-82